sensor_id;sensor_type;location;lat;lon;timestamp;P1;durP1;ratioP1;P2;durP2;ratioP2
54641;SDS011;40536;53.194;5.728;2023-03-01T00:01:22;25.38;;;23.17;;
54641;SDS011;40536;53.194;5.728;2023-03-01T00:03:50;26.48;;;23.65;;
54641;SDS011;40536;53.194;5.728;2023-03-01T00:06:17;23.52;;;21.52;;
54641;SDS011;40536;53.194;5.728;2023-03-01T00:08:43;22.88;;;20.98;;
54641;SDS011;40536;53.194;5.728;2023-03-01T00:13:48;25.30;;;23.27;;
54641;SDS011;40536;53.194;5.728;2023-03-01T00:16:18;26.27;;;22.83;;
54641;SDS011;40536;53.194;5.728;2023-03-01T00:18:47;24.85;;;22.65;;
54641;SDS011;40536;53.194;5.728;2023-03-01T00:21:13;33.08;;;23.02;;
54641;SDS011;40536;53.194;5.728;2023-03-01T00:23:38;24.65;;;22.10;;
54641;SDS011;40536;53.194;5.728;2023-03-01T00:26:11;22.92;;;21.23;;
54641;SDS011;40536;53.194;5.728;2023-03-01T00:28:38;23.60;;;21.80;;
54641;SDS011;40536;53.194;5.728;2023-03-01T00:31:07;24.23;;;22.42;;
54641;SDS011;40536;53.194;5.728;2023-03-01T00:33:35;24.95;;;23.15;;
54641;SDS011;40536;53.194;5.728;2023-03-01T00:36:00;23.48;;;21.77;;
54641;SDS011;40536;53.194;5.728;2023-03-01T00:38:26;24.27;;;22.20;;
54641;SDS011;40536;53.194;5.728;2023-03-01T00:40:53;22.98;;;21.17;;
54641;SDS011;40536;53.194;5.728;2023-03-01T00:43:19;22.95;;;21.23;;
54641;SDS011;40536;53.194;5.728;2023-03-01T00:45:45;21.90;;;20.30;;
54641;SDS011;40536;53.194;5.728;2023-03-01T00:48:10;22.08;;;20.42;;
54641;SDS011;40536;53.194;5.728;2023-03-01T00:50:36;22.40;;;20.75;;
54641;SDS011;40536;53.194;5.728;2023-03-01T00:53:02;23.25;;;21.48;;
54641;SDS011;40536;53.194;5.728;2023-03-01T00:55:28;25.55;;;22.70;;
54641;SDS011;40536;53.194;5.728;2023-03-01T00:57:53;24.63;;;22.83;;
54641;SDS011;40536;53.194;5.728;2023-03-01T01:00:19;24.10;;;22.40;;
54641;SDS011;40536;53.194;5.728;2023-03-01T01:02:45;74.88;;;26.88;;
54641;SDS011;40536;53.194;5.728;2023-03-01T01:05:11;36.78;;;26.27;;
54641;SDS011;40536;53.194;5.728;2023-03-01T01:07:37;65.53;;;29.45;;
54641;SDS011;40536;53.194;5.728;2023-03-01T01:10:03;63.42;;;27.48;;
54641;SDS011;40536;53.194;5.728;2023-03-01T01:12:29;60.45;;;27.75;;
54641;SDS011;40536;53.194;5.728;2023-03-01T01:14:55;40.55;;;26.52;;
54641;SDS011;40536;53.194;5.728;2023-03-01T01:17:21;26.35;;;24.45;;
54641;SDS011;40536;53.194;5.728;2023-03-01T01:19:46;27.35;;;25.45;;
54641;SDS011;40536;53.194;5.728;2023-03-01T01:22:12;27.52;;;25.50;;
54641;SDS011;40536;53.194;5.728;2023-03-01T01:24:38;25.33;;;23.38;;
54641;SDS011;40536;53.194;5.728;2023-03-01T01:27:03;38.40;;;25.63;;
54641;SDS011;40536;53.194;5.728;2023-03-01T01:29:29;29.80;;;24.38;;
54641;SDS011;40536;53.194;5.728;2023-03-01T01:31:54;24.30;;;22.60;;
54641;SDS011;40536;53.194;5.728;2023-03-01T01:34:21;25.90;;;24.13;;
54641;SDS011;40536;53.194;5.728;2023-03-01T01:36:47;25.50;;;23.80;;
54641;SDS011;40536;53.194;5.728;2023-03-01T01:39:14;24.20;;;22.60;;
54641;SDS011;40536;53.194;5.728;2023-03-01T01:41:40;34.53;;;24.17;;
54641;SDS011;40536;53.194;5.728;2023-03-01T01:46:49;24.02;;;21.75;;
54641;SDS011;40536;53.194;5.728;2023-03-01T01:49:25;24.50;;;22.50;;
54641;SDS011;40536;53.194;5.728;2023-03-01T01:51:54;50.63;;;25.98;;
54641;SDS011;40536;53.194;5.728;2023-03-01T01:54:44;25.30;;;23.13;;
54641;SDS011;40536;53.194;5.728;2023-03-01T01:57:22;34.13;;;25.10;;
54641;SDS011;40536;53.194;5.728;2023-03-01T01:59:53;118.55;;;29.95;;
54641;SDS011;40536;53.194;5.728;2023-03-01T02:02:21;79.55;;;28.27;;
54641;SDS011;40536;53.194;5.728;2023-03-01T02:04:47;96.80;;;28.08;;
54641;SDS011;40536;53.194;5.728;2023-03-01T02:07:19;109.63;;;30.77;;
54641;SDS011;40536;53.194;5.728;2023-03-01T02:09:47;60.67;;;28.67;;
54641;SDS011;40536;53.194;5.728;2023-03-01T02:12:15;131.68;;;32.20;;
54641;SDS011;40536;53.194;5.728;2023-03-01T02:14:43;53.60;;;27.17;;
54641;SDS011;40536;53.194;5.728;2023-03-01T02:17:09;27.70;;;25.30;;
54641;SDS011;40536;53.194;5.728;2023-03-01T02:19:43;27.88;;;25.88;;
54641;SDS011;40536;53.194;5.728;2023-03-01T02:22:28;46.25;;;27.67;;
54641;SDS011;40536;53.194;5.728;2023-03-01T02:27:38;31.30;;;28.20;;
54641;SDS011;40536;53.194;5.728;2023-03-01T02:30:18;32.25;;;29.27;;
54641;SDS011;40536;53.194;5.728;2023-03-01T02:32:45;82.57;;;32.20;;
54641;SDS011;40536;53.194;5.728;2023-03-01T02:35:13;186.05;;;35.03;;
54641;SDS011;40536;53.194;5.728;2023-03-01T02:37:41;175.77;;;32.70;;
54641;SDS011;40536;53.194;5.728;2023-03-01T02:40:09;162.85;;;34.10;;
54641;SDS011;40536;53.194;5.728;2023-03-01T02:42:43;73.22;;;33.10;;
54641;SDS011;40536;53.194;5.728;2023-03-01T02:45:15;73.88;;;32.03;;
54641;SDS011;40536;53.194;5.728;2023-03-01T02:47:41;29.95;;;27.88;;
54641;SDS011;40536;53.194;5.728;2023-03-01T02:50:12;31.35;;;29.15;;
54641;SDS011;40536;53.194;5.728;2023-03-01T02:52:51;30.58;;;28.45;;
54641;SDS011;40536;53.194;5.728;2023-03-01T02:55:18;30.17;;;27.27;;
54641;SDS011;40536;53.194;5.728;2023-03-01T02:57:45;32.97;;;29.30;;
54641;SDS011;40536;53.194;5.728;2023-03-01T03:00:17;32.33;;;28.63;;
54641;SDS011;40536;53.194;5.728;2023-03-01T03:02:45;64.28;;;32.67;;
54641;SDS011;40536;53.194;5.728;2023-03-01T03:05:16;31.75;;;29.45;;
54641;SDS011;40536;53.194;5.728;2023-03-01T03:07:44;33.03;;;30.40;;
54641;SDS011;40536;53.194;5.728;2023-03-01T03:10:18;29.27;;;27.17;;
54641;SDS011;40536;53.194;5.728;2023-03-01T03:13:03;29.83;;;27.58;;
54641;SDS011;40536;53.194;5.728;2023-03-01T03:15:35;35.17;;;30.27;;
54641;SDS011;40536;53.194;5.728;2023-03-01T03:18:01;86.70;;;29.30;;
54641;SDS011;40536;53.194;5.728;2023-03-01T03:20:28;57.35;;;28.20;;
54641;SDS011;40536;53.194;5.728;2023-03-01T03:22:55;29.50;;;27.00;;
54641;SDS011;40536;53.194;5.728;2023-03-01T03:25:23;27.48;;;24.85;;
54641;SDS011;40536;53.194;5.728;2023-03-01T03:27:50;28.10;;;25.95;;
54641;SDS011;40536;53.194;5.728;2023-03-01T03:30:21;28.73;;;26.35;;
54641;SDS011;40536;53.194;5.728;2023-03-01T03:32:49;29.98;;;27.15;;
54641;SDS011;40536;53.194;5.728;2023-03-01T03:35:19;93.80;;;31.15;;
54641;SDS011;40536;53.194;5.728;2023-03-01T03:37:49;78.47;;;29.48;;
54641;SDS011;40536;53.194;5.728;2023-03-01T03:40:37;129.75;;;32.90;;
54641;SDS011;40536;53.194;5.728;2023-03-01T03:43:06;31.98;;;27.52;;
54641;SDS011;40536;53.194;5.728;2023-03-01T03:45:34;44.38;;;27.45;;
54641;SDS011;40536;53.194;5.728;2023-03-01T03:48:01;57.00;;;28.15;;
54641;SDS011;40536;53.194;5.728;2023-03-01T03:50:28;37.80;;;26.50;;
54641;SDS011;40536;53.194;5.728;2023-03-01T03:52:54;58.50;;;27.13;;
54641;SDS011;40536;53.194;5.728;2023-03-01T03:55:20;146.73;;;30.63;;
54641;SDS011;40536;53.194;5.728;2023-03-01T03:57:46;74.72;;;28.67;;
54641;SDS011;40536;53.194;5.728;2023-03-01T04:00:17;46.10;;;27.15;;
54641;SDS011;40536;53.194;5.728;2023-03-01T04:02:45;50.38;;;28.50;;
54641;SDS011;40536;53.194;5.728;2023-03-01T04:05:12;29.63;;;26.42;;
54641;SDS011;40536;53.194;5.728;2023-03-01T04:07:40;62.88;;;26.35;;
54641;SDS011;40536;53.194;5.728;2023-03-01T04:10:10;36.30;;;27.13;;
54641;SDS011;40536;53.194;5.728;2023-03-01T04:12:39;29.50;;;26.30;;
54641;SDS011;40536;53.194;5.728;2023-03-01T04:15:06;184.85;;;33.90;;
54641;SDS011;40536;53.194;5.728;2023-03-01T04:17:45;185.18;;;32.95;;
54641;SDS011;40536;53.194;5.728;2023-03-01T04:20:16;177.75;;;32.35;;
54641;SDS011;40536;53.194;5.728;2023-03-01T04:22:55;206.05;;;35.15;;
54641;SDS011;40536;53.194;5.728;2023-03-01T04:25:41;181.07;;;32.72;;
54641;SDS011;40536;53.194;5.728;2023-03-01T04:28:11;210.85;;;34.35;;
54641;SDS011;40536;53.194;5.728;2023-03-01T04:30:37;313.40;;;39.92;;
54641;SDS011;40536;53.194;5.728;2023-03-01T04:33:06;99.68;;;30.13;;
54641;SDS011;40536;53.194;5.728;2023-03-01T04:35:34;260.35;;;37.33;;
54641;SDS011;40536;53.194;5.728;2023-03-01T04:38:02;268.00;;;34.95;;
54641;SDS011;40536;53.194;5.728;2023-03-01T04:40:28;196.27;;;34.35;;
54641;SDS011;40536;53.194;5.728;2023-03-01T04:42:54;175.45;;;34.20;;
54641;SDS011;40536;53.194;5.728;2023-03-01T04:45:25;122.13;;;30.00;;
54641;SDS011;40536;53.194;5.728;2023-03-01T04:47:51;114.22;;;32.45;;
54641;SDS011;40536;53.194;5.728;2023-03-01T04:50:20;76.55;;;31.83;;
54641;SDS011;40536;53.194;5.728;2023-03-01T04:52:48;36.80;;;30.42;;
54641;SDS011;40536;53.194;5.728;2023-03-01T04:55:14;90.57;;;32.75;;
54641;SDS011;40536;53.194;5.728;2023-03-01T04:57:39;32.00;;;29.60;;
54641;SDS011;40536;53.194;5.728;2023-03-01T05:00:06;33.42;;;29.45;;
54641;SDS011;40536;53.194;5.728;2023-03-01T05:03:07;42.58;;;28.95;;
54641;SDS011;40536;53.194;5.728;2023-03-01T05:05:35;30.70;;;28.40;;
54641;SDS011;40536;53.194;5.728;2023-03-01T05:08:05;30.15;;;27.85;;
54641;SDS011;40536;53.194;5.728;2023-03-01T05:10:33;28.33;;;26.05;;
54641;SDS011;40536;53.194;5.728;2023-03-01T05:13:00;30.25;;;27.25;;
54641;SDS011;40536;53.194;5.728;2023-03-01T05:15:28;28.45;;;25.92;;
54641;SDS011;40536;53.194;5.728;2023-03-01T05:17:56;49.85;;;28.05;;
54641;SDS011;40536;53.194;5.728;2023-03-01T05:20:24;75.60;;;30.67;;
54641;SDS011;40536;53.194;5.728;2023-03-01T05:22:55;32.70;;;29.17;;
54641;SDS011;40536;53.194;5.728;2023-03-01T05:25:23;30.33;;;27.70;;
54641;SDS011;40536;53.194;5.728;2023-03-01T05:27:50;31.20;;;28.25;;
54641;SDS011;40536;53.194;5.728;2023-03-01T05:30:16;74.82;;;29.00;;
54641;SDS011;40536;53.194;5.728;2023-03-01T05:32:43;29.27;;;26.73;;
54641;SDS011;40536;53.194;5.728;2023-03-01T05:35:12;30.50;;;27.25;;
54641;SDS011;40536;53.194;5.728;2023-03-01T05:37:40;29.27;;;26.85;;
54641;SDS011;40536;53.194;5.728;2023-03-01T05:40:11;34.33;;;28.08;;
54641;SDS011;40536;53.194;5.728;2023-03-01T05:42:48;39.92;;;29.77;;
54641;SDS011;40536;53.194;5.728;2023-03-01T05:45:15;29.90;;;27.55;;
54641;SDS011;40536;53.194;5.728;2023-03-01T05:47:43;31.65;;;29.25;;
54641;SDS011;40536;53.194;5.728;2023-03-01T05:55:14;102.07;;;38.38;;
54641;SDS011;40536;53.194;5.728;2023-03-01T05:57:41;185.65;;;37.72;;
54641;SDS011;40536;53.194;5.728;2023-03-01T06:00:08;117.85;;;33.08;;
54641;SDS011;40536;53.194;5.728;2023-03-01T06:02:34;138.73;;;34.83;;
54641;SDS011;40536;53.194;5.728;2023-03-01T06:05:00;196.10;;;36.40;;
54641;SDS011;40536;53.194;5.728;2023-03-01T06:07:25;49.33;;;31.75;;
54641;SDS011;40536;53.194;5.728;2023-03-01T06:09:51;35.72;;;29.92;;
54641;SDS011;40536;53.194;5.728;2023-03-01T06:12:17;127.50;;;33.17;;
54641;SDS011;40536;53.194;5.728;2023-03-01T06:14:42;31.77;;;28.63;;
54641;SDS011;40536;53.194;5.728;2023-03-01T06:17:09;30.92;;;27.98;;
54641;SDS011;40536;53.194;5.728;2023-03-01T06:19:35;32.45;;;29.30;;
54641;SDS011;40536;53.194;5.728;2023-03-01T06:22:04;32.03;;;29.83;;
54641;SDS011;40536;53.194;5.728;2023-03-01T06:24:29;36.78;;;28.15;;
54641;SDS011;40536;53.194;5.728;2023-03-01T06:26:55;26.77;;;24.88;;
54641;SDS011;40536;53.194;5.728;2023-03-01T06:29:21;32.08;;;26.25;;
54641;SDS011;40536;53.194;5.728;2023-03-01T06:31:47;28.55;;;26.45;;
54641;SDS011;40536;53.194;5.728;2023-03-01T06:34:13;30.52;;;27.88;;
54641;SDS011;40536;53.194;5.728;2023-03-01T06:36:40;29.42;;;27.05;;
54641;SDS011;40536;53.194;5.728;2023-03-01T06:39:05;27.27;;;24.92;;
54641;SDS011;40536;53.194;5.728;2023-03-01T06:41:31;26.23;;;24.00;;
54641;SDS011;40536;53.194;5.728;2023-03-01T06:43:58;29.60;;;27.17;;
54641;SDS011;40536;53.194;5.728;2023-03-01T06:46:30;40.13;;;28.83;;
54641;SDS011;40536;53.194;5.728;2023-03-01T06:49:00;36.13;;;29.70;;
54641;SDS011;40536;53.194;5.728;2023-03-01T06:51:26;44.47;;;30.65;;
54641;SDS011;40536;53.194;5.728;2023-03-01T06:53:51;85.72;;;31.15;;
54641;SDS011;40536;53.194;5.728;2023-03-01T06:56:17;54.38;;;30.30;;
54641;SDS011;40536;53.194;5.728;2023-03-01T06:58:43;42.13;;;29.25;;
54641;SDS011;40536;53.194;5.728;2023-03-01T07:01:08;59.88;;;32.65;;
54641;SDS011;40536;53.194;5.728;2023-03-01T07:03:34;67.57;;;35.75;;
54641;SDS011;40536;53.194;5.728;2023-03-01T07:06:00;43.38;;;33.15;;
54641;SDS011;40536;53.194;5.728;2023-03-01T07:08:26;91.55;;;34.35;;
54641;SDS011;40536;53.194;5.728;2023-03-01T07:10:55;87.03;;;31.55;;
54641;SDS011;40536;53.194;5.728;2023-03-01T07:13:21;82.38;;;33.13;;
54641;SDS011;40536;53.194;5.728;2023-03-01T07:15:47;51.22;;;31.73;;
54641;SDS011;40536;53.194;5.728;2023-03-01T07:18:13;99.13;;;33.60;;
54641;SDS011;40536;53.194;5.728;2023-03-01T07:20:38;48.85;;;30.58;;
54641;SDS011;40536;53.194;5.728;2023-03-01T07:23:07;53.97;;;29.23;;
54641;SDS011;40536;53.194;5.728;2023-03-01T07:25:34;33.00;;;28.08;;
54641;SDS011;40536;53.194;5.728;2023-03-01T07:28:00;28.52;;;26.20;;
54641;SDS011;40536;53.194;5.728;2023-03-01T07:30:28;27.55;;;25.40;;
54641;SDS011;40536;53.194;5.728;2023-03-01T07:32:54;28.80;;;26.52;;
54641;SDS011;40536;53.194;5.728;2023-03-01T07:35:23;29.45;;;27.08;;
54641;SDS011;40536;53.194;5.728;2023-03-01T07:37:50;29.02;;;26.80;;
54641;SDS011;40536;53.194;5.728;2023-03-01T07:40:16;29.42;;;26.85;;
54641;SDS011;40536;53.194;5.728;2023-03-01T07:42:42;27.83;;;25.63;;
54641;SDS011;40536;53.194;5.728;2023-03-01T07:45:08;29.48;;;27.20;;
54641;SDS011;40536;53.194;5.728;2023-03-01T07:47:34;29.60;;;27.10;;
54641;SDS011;40536;53.194;5.728;2023-03-01T07:50:00;28.75;;;26.52;;
54641;SDS011;40536;53.194;5.728;2023-03-01T07:52:26;30.80;;;28.23;;
54641;SDS011;40536;53.194;5.728;2023-03-01T07:54:52;29.80;;;27.23;;
54641;SDS011;40536;53.194;5.728;2023-03-01T07:57:18;30.52;;;27.50;;
54641;SDS011;40536;53.194;5.728;2023-03-01T07:59:43;30.30;;;27.50;;
54641;SDS011;40536;53.194;5.728;2023-03-01T08:02:10;29.35;;;26.63;;
54641;SDS011;40536;53.194;5.728;2023-03-01T08:04:36;30.80;;;27.85;;
54641;SDS011;40536;53.194;5.728;2023-03-01T08:07:03;29.65;;;27.00;;
54641;SDS011;40536;53.194;5.728;2023-03-01T08:09:30;29.05;;;26.45;;
54641;SDS011;40536;53.194;5.728;2023-03-01T08:11:56;29.17;;;26.35;;
54641;SDS011;40536;53.194;5.728;2023-03-01T08:14:24;29.27;;;26.48;;
54641;SDS011;40536;53.194;5.728;2023-03-01T08:16:50;30.13;;;27.08;;
54641;SDS011;40536;53.194;5.728;2023-03-01T08:19:16;30.58;;;27.50;;
54641;SDS011;40536;53.194;5.728;2023-03-01T08:21:41;30.02;;;26.92;;
54641;SDS011;40536;53.194;5.728;2023-03-01T08:24:07;29.15;;;26.25;;
54641;SDS011;40536;53.194;5.728;2023-03-01T08:26:35;28.42;;;25.52;;
54641;SDS011;40536;53.194;5.728;2023-03-01T08:29:01;28.67;;;25.92;;
54641;SDS011;40536;53.194;5.728;2023-03-01T08:31:31;30.88;;;27.58;;
54641;SDS011;40536;53.194;5.728;2023-03-01T08:34:01;30.75;;;27.65;;
54641;SDS011;40536;53.194;5.728;2023-03-01T08:36:34;31.98;;;27.67;;
54641;SDS011;40536;53.194;5.728;2023-03-01T08:39:02;33.78;;;29.88;;
54641;SDS011;40536;53.194;5.728;2023-03-01T08:41:28;31.90;;;28.65;;
54641;SDS011;40536;53.194;5.728;2023-03-01T08:43:54;29.88;;;26.30;;
54641;SDS011;40536;53.194;5.728;2023-03-01T08:46:27;33.63;;;28.30;;
54641;SDS011;40536;53.194;5.728;2023-03-01T08:48:53;32.92;;;25.75;;
54641;SDS011;40536;53.194;5.728;2023-03-01T08:51:20;32.22;;;26.00;;
54641;SDS011;40536;53.194;5.728;2023-03-01T08:53:46;32.88;;;26.58;;
54641;SDS011;40536;53.194;5.728;2023-03-01T08:56:12;34.55;;;28.20;;
54641;SDS011;40536;53.194;5.728;2023-03-01T08:58:38;35.00;;;28.02;;
54641;SDS011;40536;53.194;5.728;2023-03-01T09:01:07;33.60;;;27.83;;
54641;SDS011;40536;53.194;5.728;2023-03-01T09:03:34;33.47;;;27.77;;
54641;SDS011;40536;53.194;5.728;2023-03-01T09:06:00;35.70;;;28.17;;
54641;SDS011;40536;53.194;5.728;2023-03-01T09:08:26;34.95;;;26.13;;
54641;SDS011;40536;53.194;5.728;2023-03-01T09:10:52;29.20;;;22.17;;
54641;SDS011;40536;53.194;5.728;2023-03-01T09:13:18;28.25;;;22.50;;
54641;SDS011;40536;53.194;5.728;2023-03-01T09:15:44;29.77;;;21.05;;
54641;SDS011;40536;53.194;5.728;2023-03-01T09:18:09;28.75;;;23.40;;
54641;SDS011;40536;53.194;5.728;2023-03-01T09:20:35;23.67;;;21.17;;
54641;SDS011;40536;53.194;5.728;2023-03-01T09:23:01;21.65;;;19.35;;
54641;SDS011;40536;53.194;5.728;2023-03-01T09:25:26;22.58;;;19.65;;
54641;SDS011;40536;53.194;5.728;2023-03-01T09:27:53;23.85;;;19.55;;
54641;SDS011;40536;53.194;5.728;2023-03-01T09:30:20;21.20;;;18.30;;
54641;SDS011;40536;53.194;5.728;2023-03-01T09:32:45;22.23;;;19.73;;
54641;SDS011;40536;53.194;5.728;2023-03-01T09:35:12;21.17;;;19.02;;
54641;SDS011;40536;53.194;5.728;2023-03-01T09:37:38;21.85;;;18.75;;
54641;SDS011;40536;53.194;5.728;2023-03-01T09:40:18;20.33;;;18.10;;
54641;SDS011;40536;53.194;5.728;2023-03-01T09:43:07;22.08;;;18.90;;
54641;SDS011;40536;53.194;5.728;2023-03-01T09:45:34;22.25;;;17.92;;
54641;SDS011;40536;53.194;5.728;2023-03-01T09:48:03;20.65;;;18.55;;
54641;SDS011;40536;53.194;5.728;2023-03-01T09:50:40;20.85;;;18.65;;
54641;SDS011;40536;53.194;5.728;2023-03-01T09:53:15;20.35;;;17.67;;
54641;SDS011;40536;53.194;5.728;2023-03-01T09:55:44;21.30;;;18.58;;
54641;SDS011;40536;53.194;5.728;2023-03-01T10:00:43;19.30;;;17.00;;
54641;SDS011;40536;53.194;5.728;2023-03-01T10:03:13;20.98;;;17.08;;
54641;SDS011;40536;53.194;5.728;2023-03-01T10:10:51;18.73;;;16.65;;
54641;SDS011;40536;53.194;5.728;2023-03-01T10:16:20;22.13;;;19.85;;
54641;SDS011;40536;53.194;5.728;2023-03-01T10:18:55;22.00;;;19.20;;
54641;SDS011;40536;53.194;5.728;2023-03-01T10:21:25;19.63;;;17.58;;
54641;SDS011;40536;53.194;5.728;2023-03-01T10:23:53;21.05;;;18.38;;
54641;SDS011;40536;53.194;5.728;2023-03-01T10:29:04;21.50;;;19.33;;
54641;SDS011;40536;53.194;5.728;2023-03-01T10:34:11;20.73;;;18.45;;
54641;SDS011;40536;53.194;5.728;2023-03-01T10:36:38;23.27;;;20.60;;
54641;SDS011;40536;53.194;5.728;2023-03-01T10:39:13;22.20;;;19.88;;
54641;SDS011;40536;53.194;5.728;2023-03-01T10:41:57;21.20;;;18.92;;
54641;SDS011;40536;53.194;5.728;2023-03-01T10:44:38;22.30;;;19.65;;
54641;SDS011;40536;53.194;5.728;2023-03-01T10:47:13;22.48;;;19.67;;
54641;SDS011;40536;53.194;5.728;2023-03-01T10:50:00;22.38;;;20.08;;
54641;SDS011;40536;53.194;5.728;2023-03-01T10:52:32;23.88;;;20.25;;
54641;SDS011;40536;53.194;5.728;2023-03-01T10:57:48;21.45;;;18.83;;
54641;SDS011;40536;53.194;5.728;2023-03-01T11:00:19;21.65;;;19.17;;
54641;SDS011;40536;53.194;5.728;2023-03-01T11:02:50;25.35;;;22.23;;
54641;SDS011;40536;53.194;5.728;2023-03-01T11:05:37;22.35;;;20.13;;
54641;SDS011;40536;53.194;5.728;2023-03-01T11:08:26;23.73;;;21.40;;
54641;SDS011;40536;53.194;5.728;2023-03-01T11:16:32;27.38;;;24.75;;
54641;SDS011;40536;53.194;5.728;2023-03-01T11:24:36;24.42;;;22.33;;
54641;SDS011;40536;53.194;5.728;2023-03-01T11:27:14;25.50;;;23.20;;
54641;SDS011;40536;53.194;5.728;2023-03-01T11:29:47;23.23;;;21.33;;
54641;SDS011;40536;53.194;5.728;2023-03-01T11:32:30;26.75;;;24.55;;
54641;SDS011;40536;53.194;5.728;2023-03-01T11:35:25;23.98;;;21.98;;
54641;SDS011;40536;53.194;5.728;2023-03-01T11:40:39;22.30;;;20.13;;
54641;SDS011;40536;53.194;5.728;2023-03-01T11:46:03;21.42;;;19.58;;
54641;SDS011;40536;53.194;5.728;2023-03-01T12:09:09;19.55;;;17.75;;
54641;SDS011;40536;53.194;5.728;2023-03-01T12:17:52;21.55;;;19.48;;
54641;SDS011;40536;53.194;5.728;2023-03-01T12:42:20;22.80;;;20.60;;
54641;SDS011;40536;53.194;5.728;2023-03-01T12:45:40;21.73;;;19.70;;
54641;SDS011;40536;53.194;5.728;2023-03-01T12:51:03;21.80;;;19.58;;
54641;SDS011;40536;53.194;5.728;2023-03-01T12:53:41;22.60;;;19.73;;
54641;SDS011;40536;53.194;5.728;2023-03-01T12:56:12;22.30;;;20.17;;
54641;SDS011;40536;53.194;5.728;2023-03-01T13:04:33;22.75;;;19.98;;
54641;SDS011;40536;53.194;5.728;2023-03-01T13:10:14;22.27;;;19.40;;
54641;SDS011;40536;53.194;5.728;2023-03-01T13:17:51;23.13;;;20.63;;
54641;SDS011;40536;53.194;5.728;2023-03-01T13:20:20;23.35;;;20.88;;
54641;SDS011;40536;53.194;5.728;2023-03-01T13:22:59;22.75;;;20.48;;
54641;SDS011;40536;53.194;5.728;2023-03-01T13:25:27;23.05;;;20.65;;
54641;SDS011;40536;53.194;5.728;2023-03-01T13:27:53;22.95;;;20.55;;
54641;SDS011;40536;53.194;5.728;2023-03-01T13:31:02;21.23;;;19.15;;
54641;SDS011;40536;53.194;5.728;2023-03-01T13:35:55;22.83;;;20.52;;
54641;SDS011;40536;53.194;5.728;2023-03-01T13:41:08;23.02;;;20.63;;
54641;SDS011;40536;53.194;5.728;2023-03-01T13:43:37;25.13;;;21.20;;
54641;SDS011;40536;53.194;5.728;2023-03-01T13:46:15;22.75;;;19.63;;
54641;SDS011;40536;53.194;5.728;2023-03-01T13:48:45;22.88;;;20.73;;
54641;SDS011;40536;53.194;5.728;2023-03-01T13:51:15;23.75;;;20.15;;
54641;SDS011;40536;53.194;5.728;2023-03-01T13:53:45;20.73;;;18.73;;
54641;SDS011;40536;53.194;5.728;2023-03-01T13:56:55;22.00;;;19.77;;
54641;SDS011;40536;53.194;5.728;2023-03-01T13:59:04;20.55;;;18.48;;
54641;SDS011;40536;53.194;5.728;2023-03-01T14:01:51;21.45;;;19.25;;
54641;SDS011;40536;53.194;5.728;2023-03-01T14:04:22;21.17;;;18.83;;
54641;SDS011;40536;53.194;5.728;2023-03-01T14:07:10;22.80;;;19.95;;
54641;SDS011;40536;53.194;5.728;2023-03-01T14:09:47;21.23;;;18.80;;
54641;SDS011;40536;53.194;5.728;2023-03-01T14:14:59;22.17;;;19.80;;
54641;SDS011;40536;53.194;5.728;2023-03-01T14:20:28;22.23;;;19.92;;
54641;SDS011;40536;53.194;5.728;2023-03-01T14:23:02;22.23;;;19.88;;
54641;SDS011;40536;53.194;5.728;2023-03-01T14:25:37;22.50;;;20.23;;
54641;SDS011;40536;53.194;5.728;2023-03-01T14:30:44;22.55;;;20.25;;
54641;SDS011;40536;53.194;5.728;2023-03-01T14:33:28;23.67;;;21.23;;
54641;SDS011;40536;53.194;5.728;2023-03-01T14:39:15;20.95;;;18.73;;
54641;SDS011;40536;53.194;5.728;2023-03-01T14:41:15;22.27;;;19.30;;
54641;SDS011;40536;53.194;5.728;2023-03-01T14:44:06;20.08;;;18.02;;
54641;SDS011;40536;53.194;5.728;2023-03-01T14:46:38;19.98;;;17.90;;
54641;SDS011;40536;53.194;5.728;2023-03-01T14:49:12;20.50;;;18.48;;
54641;SDS011;40536;53.194;5.728;2023-03-01T14:51:51;19.52;;;17.63;;
54641;SDS011;40536;53.194;5.728;2023-03-01T14:56:52;20.75;;;18.50;;
54641;SDS011;40536;53.194;5.728;2023-03-01T14:59:21;20.98;;;18.02;;
54641;SDS011;40536;53.194;5.728;2023-03-01T15:01:48;20.35;;;18.25;;
54641;SDS011;40536;53.194;5.728;2023-03-01T15:04:19;19.88;;;17.60;;
54641;SDS011;40536;53.194;5.728;2023-03-01T15:06:46;19.73;;;17.73;;
54641;SDS011;40536;53.194;5.728;2023-03-01T15:09:16;19.88;;;17.88;;
54641;SDS011;40536;53.194;5.728;2023-03-01T15:14:45;20.35;;;18.25;;
54641;SDS011;40536;53.194;5.728;2023-03-01T15:17:18;21.98;;;19.60;;
54641;SDS011;40536;53.194;5.728;2023-03-01T15:20:03;24.98;;;20.55;;
54641;SDS011;40536;53.194;5.728;2023-03-01T15:22:31;20.23;;;18.23;;
54641;SDS011;40536;53.194;5.728;2023-03-01T15:24:57;19.67;;;17.80;;
54641;SDS011;40536;53.194;5.728;2023-03-01T15:27:24;20.92;;;18.83;;
54641;SDS011;40536;53.194;5.728;2023-03-01T15:29:55;20.83;;;18.83;;
54641;SDS011;40536;53.194;5.728;2023-03-01T15:34:54;19.48;;;17.70;;
54641;SDS011;40536;53.194;5.728;2023-03-01T15:42:49;19.00;;;17.08;;
54641;SDS011;40536;53.194;5.728;2023-03-01T15:47:46;19.42;;;17.52;;
54641;SDS011;40536;53.194;5.728;2023-03-01T15:52:58;20.00;;;18.00;;
54641;SDS011;40536;53.194;5.728;2023-03-01T15:55:26;19.58;;;17.67;;
54641;SDS011;40536;53.194;5.728;2023-03-01T15:57:58;20.73;;;18.77;;
54641;SDS011;40536;53.194;5.728;2023-03-01T16:00:31;20.50;;;18.38;;
54641;SDS011;40536;53.194;5.728;2023-03-01T16:02:57;21.23;;;19.33;;
54641;SDS011;40536;53.194;5.728;2023-03-01T16:05:25;21.13;;;19.15;;
54641;SDS011;40536;53.194;5.728;2023-03-01T16:07:53;21.35;;;19.38;;
54641;SDS011;40536;53.194;5.728;2023-03-01T16:10:19;22.20;;;20.10;;
54641;SDS011;40536;53.194;5.728;2023-03-01T16:12:45;22.38;;;20.35;;
54641;SDS011;40536;53.194;5.728;2023-03-01T16:15:14;22.67;;;20.38;;
54641;SDS011;40536;53.194;5.728;2023-03-01T16:17:45;21.98;;;19.85;;
54641;SDS011;40536;53.194;5.728;2023-03-01T16:20:11;23.02;;;20.90;;
54641;SDS011;40536;53.194;5.728;2023-03-01T16:22:37;22.80;;;20.50;;
54641;SDS011;40536;53.194;5.728;2023-03-01T16:25:02;23.73;;;21.33;;
54641;SDS011;40536;53.194;5.728;2023-03-01T16:27:28;25.88;;;23.45;;
54641;SDS011;40536;53.194;5.728;2023-03-01T16:29:54;24.70;;;22.13;;
54641;SDS011;40536;53.194;5.728;2023-03-01T16:32:20;27.83;;;25.02;;
54641;SDS011;40536;53.194;5.728;2023-03-01T16:34:45;24.42;;;21.10;;
54641;SDS011;40536;53.194;5.728;2023-03-01T16:37:14;24.77;;;21.60;;
54641;SDS011;40536;53.194;5.728;2023-03-01T16:39:40;28.05;;;22.17;;
54641;SDS011;40536;53.194;5.728;2023-03-01T16:42:08;24.60;;;19.60;;
54641;SDS011;40536;53.194;5.728;2023-03-01T16:44:36;29.30;;;21.02;;
54641;SDS011;40536;53.194;5.728;2023-03-01T16:47:02;25.48;;;20.05;;
54641;SDS011;40536;53.194;5.728;2023-03-01T16:49:28;28.88;;;20.77;;
54641;SDS011;40536;53.194;5.728;2023-03-01T16:51:54;24.23;;;20.52;;
54641;SDS011;40536;53.194;5.728;2023-03-01T16:54:19;28.45;;;24.38;;
54641;SDS011;40536;53.194;5.728;2023-03-01T16:56:45;28.05;;;23.45;;
54641;SDS011;40536;53.194;5.728;2023-03-01T16:59:11;27.05;;;24.42;;
54641;SDS011;40536;53.194;5.728;2023-03-01T17:01:37;31.33;;;28.23;;
54641;SDS011;40536;53.194;5.728;2023-03-01T17:04:04;32.05;;;28.65;;